createdAt,value
2023-05-22T00:01:43.773Z,20.00
2023-05-22T00:04:30.244Z,19.96
2023-05-22T00:07:16.449Z,19.94
2023-05-22T00:10:02.512Z,19.97
2023-05-22T00:12:48.507Z,19.95
2023-05-22T00:15:34.450Z,19.83
2023-05-22T00:18:20.381Z,19.88
2023-05-22T00:21:06.468Z,19.88
2023-05-22T00:23:52.249Z,19.85
2023-05-22T00:26:38.141Z,19.82
2023-05-22T00:29:24.003Z,19.80
2023-05-22T00:32:09.758Z,19.79
2023-05-22T00:34:55.951Z,19.76
2023-05-22T00:37:41.760Z,19.73
2023-05-22T00:40:27.685Z,19.72
2023-05-22T00:43:14.664Z,19.74
2023-05-22T00:46:01.045Z,19.68
2023-05-22T00:48:48.506Z,19.71
2023-05-22T00:51:34.591Z,19.71
2023-05-22T00:54:20.887Z,19.70
2023-05-22T00:57:07.345Z,19.70
2023-05-22T00:59:53.699Z,19.67
2023-05-22T01:02:43.119Z,19.65
2023-05-22T01:05:29.419Z,19.62
2023-05-22T01:08:15.654Z,19.58
2023-05-22T01:11:07.431Z,19.55
2023-05-22T01:13:56.649Z,19.53
2023-05-22T01:16:46.894Z,19.52
2023-05-22T01:20:05.991Z,19.43
2023-05-22T01:23:11.924Z,19.44
2023-05-22T01:26:37.605Z,19.38
2023-05-22T01:29:23.525Z,19.31
2023-05-22T01:32:16.656Z,19.35
2023-05-22T01:35:15.669Z,19.37
2023-05-22T01:38:02.098Z,19.40
2023-05-22T01:40:49.727Z,19.40
2023-05-22T01:43:36.229Z,19.35
2023-05-22T01:46:25.272Z,19.36
2023-05-22T01:49:11.452Z,19.33
2023-05-22T01:52:18.904Z,19.30
2023-05-22T01:55:24.198Z,19.28
2023-05-22T01:58:45.494Z,19.27
2023-05-22T02:01:32.906Z,19.27
2023-05-22T02:04:22.956Z,19.29
2023-05-22T02:07:12.133Z,19.31
2023-05-22T02:10:00.704Z,19.32
2023-05-22T02:12:46.755Z,19.29
2023-05-22T02:15:33.596Z,19.27
2023-05-22T02:18:19.755Z,19.28
2023-05-22T02:21:08.652Z,19.30
2023-05-22T02:23:54.511Z,19.29
2023-05-22T02:26:40.521Z,19.32
2023-05-22T02:29:26.650Z,19.31
2023-05-22T02:32:12.876Z,19.30
2023-05-22T02:34:58.763Z,19.30
2023-05-22T02:37:46.536Z,19.34
2023-05-22T02:40:32.556Z,19.30
2023-05-22T02:43:18.625Z,19.29
2023-05-22T02:46:04.552Z,19.26
2023-05-22T02:48:50.876Z,19.24
2023-05-22T02:51:37.848Z,19.22
2023-05-22T02:54:23.923Z,19.22
2023-05-22T02:57:10.214Z,19.23
2023-05-22T02:59:57.845Z,19.22
2023-05-22T03:02:44.155Z,19.18
2023-05-22T03:05:30.013Z,19.17
2023-05-22T03:08:16.116Z,19.20
2023-05-22T03:11:02.154Z,19.21
2023-05-22T03:13:48.181Z,19.17
2023-05-22T03:16:34.657Z,19.18
2023-05-22T03:19:21.084Z,19.16
2023-05-22T03:22:07.464Z,19.19
2023-05-22T03:24:55.108Z,19.20
2023-05-22T03:27:41.348Z,19.13
2023-05-22T03:30:27.396Z,19.15
2023-05-22T03:33:25.793Z,19.16
2023-05-22T03:36:12.149Z,19.18
2023-05-22T03:38:58.026Z,19.18
2023-05-22T03:41:43.670Z,19.16
2023-05-22T03:45:04.776Z,19.14
2023-05-22T03:47:53.967Z,19.11
2023-05-22T03:50:42.067Z,19.11
2023-05-22T03:53:29.463Z,19.12
2023-05-22T03:56:15.551Z,19.12
2023-05-22T03:59:01.424Z,19.12
2023-05-22T04:01:47.252Z,19.12
2023-05-22T04:04:38.685Z,19.11
2023-05-22T04:07:24.989Z,19.07
2023-05-22T04:10:12.149Z,19.06
2023-05-22T04:12:59.561Z,19.07
2023-05-22T04:15:46.825Z,19.05
2023-05-22T04:18:32.819Z,19.08
2023-05-22T04:21:19.142Z,19.05
2023-05-22T04:24:07.540Z,19.08
2023-05-22T04:26:53.727Z,19.07
2023-05-22T04:29:41.607Z,19.09
2023-05-22T04:32:29.917Z,19.06
2023-05-22T04:35:18.649Z,19.07
2023-05-22T04:38:06.660Z,18.98
2023-05-22T04:40:53.014Z,19.09
2023-05-22T04:43:40.138Z,19.07
2023-05-22T04:46:26.123Z,19.03
2023-05-22T04:49:12.107Z,18.96
2023-05-22T04:51:57.915Z,18.95
2023-05-22T04:54:44.630Z,18.88
2023-05-22T04:57:31.392Z,18.82
2023-05-22T05:00:26.634Z,18.80
2023-05-22T05:03:13.239Z,18.82
2023-05-22T05:06:01.171Z,18.82
2023-05-22T05:08:48.270Z,18.87
2023-05-22T05:11:35.564Z,18.86
2023-05-22T05:14:21.920Z,18.96
2023-05-22T05:17:08.354Z,19.04
2023-05-22T05:19:54.488Z,19.07
2023-05-22T05:22:40.645Z,19.14
2023-05-22T05:25:28.508Z,19.22
2023-05-22T05:28:14.644Z,19.27
2023-05-22T05:31:01.918Z,19.28
2023-05-22T05:34:08.285Z,19.30
2023-05-22T05:37:18.143Z,19.33
2023-05-22T05:40:07.290Z,19.36
2023-05-22T05:42:55.483Z,19.40
2023-05-22T05:45:44.711Z,19.46
2023-05-22T05:48:30.701Z,19.49
2023-05-22T05:51:17.759Z,19.54
2023-05-22T05:54:05.341Z,19.57
2023-05-22T05:56:51.596Z,19.60
2023-05-22T05:59:37.533Z,19.65
2023-05-22T06:02:47.578Z,19.72
2023-05-22T06:05:55.812Z,19.73
2023-05-22T06:09:07.206Z,19.88
2023-05-22T06:12:15.376Z,19.91
2023-05-22T06:15:05.514Z,19.97
2023-05-22T06:17:52.315Z,20.01
2023-05-22T06:20:39.676Z,20.07
2023-05-22T06:23:26.519Z,20.09
2023-05-22T06:26:24.577Z,20.17
2023-05-22T06:29:11.262Z,20.20
2023-05-22T06:31:57.539Z,20.29
2023-05-22T06:34:45.647Z,20.37
2023-05-22T06:37:35.872Z,20.45
2023-05-22T06:40:22.620Z,20.57
2023-05-22T06:43:11.394Z,20.60
2023-05-22T06:46:07.131Z,20.65
2023-05-22T06:49:20.129Z,20.76
2023-05-22T06:52:11.053Z,20.79
2023-05-22T06:55:04.604Z,20.85
2023-05-22T06:57:55.048Z,20.91
2023-05-22T07:00:43.210Z,20.91
2023-05-22T07:03:38.908Z,20.96
2023-05-22T07:06:54.254Z,21.02
2023-05-22T07:09:42.240Z,21.04
2023-05-22T07:12:31.243Z,21.04
2023-05-22T07:15:17.798Z,21.06
2023-05-22T07:18:10.426Z,21.03
2023-05-22T07:20:59.359Z,21.07
2023-05-22T07:23:45.606Z,21.04
2023-05-22T07:26:31.846Z,21.05
2023-05-22T07:29:24.691Z,21.05
2023-05-22T07:32:12.911Z,21.07
2023-05-22T07:35:00.648Z,21.11
2023-05-22T07:37:48.217Z,21.12
2023-05-22T07:40:35.273Z,21.14
2023-05-22T07:43:23.078Z,21.16
2023-05-22T07:46:09.874Z,21.14
2023-05-22T07:49:04.791Z,21.17
2023-05-22T07:51:52.284Z,21.20
2023-05-22T07:54:42.289Z,21.26
2023-05-22T07:57:29.985Z,21.28
2023-05-22T08:00:21.239Z,21.28
2023-05-22T08:03:07.255Z,21.38
2023-05-22T08:05:53.318Z,21.40
2023-05-22T08:18:19.724Z,21.56
2023-05-22T08:21:05.840Z,21.64
2023-05-22T08:24:17.895Z,21.68
2023-05-22T08:27:04.660Z,21.76
2023-05-22T08:30:09.771Z,21.78
2023-05-22T08:34:13.505Z,21.82
2023-05-22T08:37:00.050Z,21.88
2023-05-22T08:39:46.226Z,21.87
2023-05-22T08:47:53.603Z,22.01
2023-05-22T08:50:44.099Z,22.06
2023-05-22T08:53:34.607Z,22.12
2023-05-22T08:56:23.076Z,22.15
2023-05-22T08:59:09.102Z,22.19
2023-05-22T09:01:55.260Z,22.24
2023-05-22T09:04:41.779Z,22.32
2023-05-22T09:07:27.994Z,22.34
2023-05-22T09:10:13.919Z,22.44
2023-05-22T09:13:10.000Z,22.49
2023-05-22T09:16:00.871Z,22.58
2023-05-22T09:18:46.908Z,22.59
2023-05-22T09:21:32.983Z,22.65
2023-05-22T09:24:18.921Z,22.79
2023-05-22T09:27:07.251Z,22.84
2023-05-22T09:29:56.730Z,22.91
2023-05-22T09:32:43.131Z,22.98
2023-05-22T09:35:31.742Z,23.02
2023-05-22T09:38:18.435Z,23.04
2023-05-22T09:41:04.458Z,23.08
2023-05-22T09:43:53.554Z,23.11
2023-05-22T09:46:45.905Z,23.17
2023-05-22T09:49:31.807Z,23.20
2023-05-22T09:52:18.406Z,23.28
2023-05-22T09:55:07.049Z,23.37
2023-05-22T09:57:52.985Z,23.47
2023-05-22T10:00:39.341Z,23.61
2023-05-22T10:03:27.315Z,23.68
2023-05-22T10:06:14.412Z,23.77
2023-05-22T10:09:05.859Z,23.88
2023-05-22T10:11:53.922Z,23.92
2023-05-22T10:14:39.944Z,23.98
2023-05-22T10:17:26.954Z,23.98
2023-05-22T10:20:13.539Z,24.02
2023-05-22T10:22:59.927Z,24.15
2023-05-22T10:25:47.251Z,24.16
2023-05-22T10:28:41.911Z,24.15
2023-05-22T10:31:44.599Z,24.12
2023-05-22T10:35:02.445Z,24.17
2023-05-22T10:37:55.427Z,24.12
2023-05-22T10:41:14.212Z,24.19
2023-05-22T10:44:02.901Z,24.13
2023-05-22T10:46:51.950Z,24.23
2023-05-22T10:49:39.277Z,24.22
2023-05-22T10:52:25.387Z,24.25
2023-05-22T10:55:11.929Z,24.34
2023-05-22T10:57:58.348Z,24.36
2023-05-22T11:00:45.124Z,24.40
2023-05-22T11:04:09.200Z,24.57
2023-05-22T11:07:05.656Z,24.70
2023-05-22T11:10:05.351Z,24.76
2023-05-22T11:13:11.601Z,24.90
2023-05-22T11:15:58.411Z,24.96
2023-05-22T11:18:45.290Z,24.96
2023-05-22T11:21:32.052Z,25.04
2023-05-22T11:24:18.890Z,25.09
2023-05-22T11:27:07.113Z,25.20
2023-05-22T11:29:54.719Z,25.25
2023-05-22T11:32:46.345Z,25.35
2023-05-22T11:35:32.863Z,25.45
2023-05-22T11:38:18.860Z,25.56
2023-05-22T11:41:05.709Z,25.62
2023-05-22T11:43:52.887Z,25.71
2023-05-22T11:46:39.868Z,25.73
2023-05-22T11:49:27.668Z,25.67
2023-05-22T11:52:14.071Z,25.70
2023-05-22T11:55:00.232Z,25.63
2023-05-22T11:57:48.118Z,25.65
2023-05-22T12:00:34.546Z,25.64
2023-05-22T12:03:21.268Z,25.69
2023-05-22T12:06:08.752Z,25.74
2023-05-22T12:08:55.071Z,25.70
2023-05-22T12:11:47.123Z,25.70
2023-05-22T12:14:33.300Z,25.75
2023-05-22T12:17:19.448Z,25.67
2023-05-22T12:20:07.397Z,25.70
2023-05-22T12:22:56.210Z,25.71
2023-05-22T12:25:43.323Z,25.71
2023-05-22T12:28:32.681Z,25.74
2023-05-22T12:31:25.160Z,25.87
2023-05-22T12:34:11.747Z,25.85
2023-05-22T12:36:58.733Z,25.94
2023-05-22T12:39:58.105Z,26.02
2023-05-22T12:42:45.131Z,26.03
2023-05-22T12:45:31.103Z,26.13
2023-05-22T12:48:17.971Z,26.36
2023-05-22T12:51:04.126Z,26.46
2023-05-22T12:53:51.179Z,26.66
2023-05-22T12:56:37.162Z,26.73
2023-05-22T12:59:23.408Z,26.93
2023-05-22T13:02:10.023Z,27.09
2023-05-22T13:04:55.836Z,27.26
2023-05-22T13:07:42.292Z,27.47
2023-05-22T13:10:28.394Z,27.71
2023-05-22T13:13:14.619Z,28.03
2023-05-22T13:16:01.092Z,28.41
2023-05-22T13:18:47.364Z,28.73
2023-05-22T13:21:33.704Z,29.01
2023-05-22T13:24:19.723Z,29.23
2023-05-22T13:27:06.103Z,29.42
2023-05-22T13:29:52.080Z,29.59
2023-05-22T13:32:38.400Z,29.76
2023-05-22T13:35:25.362Z,30.06
2023-05-22T13:38:11.209Z,30.52
2023-05-22T13:40:56.908Z,31.17
2023-05-22T13:43:42.923Z,31.80
2023-05-22T13:46:28.921Z,32.64
2023-05-22T13:49:15.319Z,33.43
2023-05-22T13:52:01.478Z,34.22
2023-05-22T13:54:47.772Z,35.02
2023-05-22T13:57:53.981Z,35.92
2023-05-22T14:00:40.111Z,36.08
2023-05-22T14:03:36.905Z,36.64
2023-05-22T14:06:23.531Z,37.16
2023-05-22T14:09:09.886Z,37.70
2023-05-22T14:12:38.864Z,38.84
2023-05-22T14:15:25.154Z,39.38
2023-05-22T14:18:11.870Z,40.02
2023-05-22T14:21:04.548Z,40.72
2023-05-22T14:24:02.568Z,41.19
2023-05-22T14:26:58.252Z,41.19
2023-05-22T14:29:44.584Z,40.90
2023-05-22T14:32:30.803Z,41.02
2023-05-22T14:35:19.102Z,41.08
2023-05-22T14:38:04.994Z,40.66
2023-05-22T14:40:52.119Z,39.98
2023-05-22T14:43:38.433Z,39.18
2023-05-22T14:46:24.562Z,38.21
2023-05-22T14:49:14.227Z,37.40
2023-05-22T14:52:00.471Z,36.43
2023-05-22T14:54:46.854Z,35.65
2023-05-22T14:57:33.010Z,34.88
2023-05-22T15:00:20.059Z,34.18
2023-05-22T15:03:06.021Z,33.66
2023-05-22T15:05:52.241Z,33.37
2023-05-22T15:08:38.359Z,33.20
2023-05-22T15:11:24.459Z,32.99
2023-05-22T15:14:10.700Z,33.48
2023-05-22T15:16:59.931Z,34.08
2023-05-22T15:19:45.852Z,34.55
2023-05-22T15:22:32.411Z,34.64
2023-05-22T15:25:18.095Z,34.54
2023-05-22T15:28:09.403Z,34.16
2023-05-22T15:30:57.033Z,33.66
2023-05-22T15:33:42.837Z,33.17
2023-05-22T15:36:29.446Z,32.62
2023-05-22T15:39:15.596Z,32.11
2023-05-22T15:42:22.227Z,31.63
2023-05-22T15:45:10.682Z,31.13
2023-05-22T15:48:20.149Z,30.68
2023-05-22T15:51:06.994Z,30.26
2023-05-22T15:53:53.270Z,29.87
2023-05-22T15:56:39.925Z,29.56
2023-05-22T15:59:25.807Z,29.28
2023-05-22T16:02:12.135Z,29.00
2023-05-22T16:04:58.359Z,28.75
2023-05-22T16:07:45.231Z,28.53
2023-05-22T16:10:32.064Z,28.34
2023-05-22T16:13:24.463Z,28.12
2023-05-22T16:16:10.447Z,27.93
2023-05-22T16:18:56.551Z,27.79
2023-05-22T16:21:45.509Z,27.60
2023-05-22T16:24:31.752Z,27.47
2023-05-22T16:27:17.803Z,27.36
2023-05-22T16:30:04.530Z,27.24
2023-05-22T16:32:50.875Z,27.19
2023-05-22T16:35:36.735Z,27.07
2023-05-22T16:38:22.662Z,27.03
2023-05-22T16:41:08.529Z,26.97
2023-05-22T16:43:54.563Z,26.90
2023-05-22T16:46:40.751Z,26.87
2023-05-22T16:49:27.100Z,26.84
2023-05-22T16:52:13.400Z,26.77
2023-05-22T16:54:59.770Z,26.72
2023-05-22T16:57:46.458Z,26.63
2023-05-22T17:00:32.623Z,26.63
2023-05-22T17:03:19.744Z,26.48
2023-05-22T17:06:06.217Z,26.45
2023-05-22T17:08:52.264Z,26.33
2023-05-22T17:11:38.288Z,26.26
2023-05-22T17:14:26.288Z,26.14
2023-05-22T17:21:48.314Z,25.90
2023-05-22T17:24:34.419Z,25.79
2023-05-22T17:27:35.035Z,25.76
2023-05-22T17:30:22.600Z,25.63
2023-05-22T17:33:08.671Z,25.62
2023-05-22T17:35:54.650Z,25.54
2023-05-22T17:38:40.813Z,25.46
2023-05-22T17:42:06.555Z,25.42
2023-05-22T17:44:52.803Z,25.39
2023-05-22T17:47:39.030Z,25.27
2023-05-22T17:50:25.496Z,25.31
2023-05-22T17:53:13.771Z,25.24
2023-05-22T17:56:00.126Z,25.15
2023-05-22T17:58:46.583Z,25.06
2023-05-22T18:02:10.109Z,24.93
2023-05-22T18:04:56.878Z,24.77
2023-05-22T18:07:43.685Z,24.67
2023-05-22T18:10:30.053Z,24.50
2023-05-22T18:13:16.384Z,24.46
2023-05-22T18:16:03.587Z,24.31
2023-05-22T18:18:49.867Z,24.21
2023-05-22T18:21:38.950Z,24.12
2023-05-22T18:24:27.866Z,24.02
2023-05-22T18:27:14.471Z,23.97
2023-05-22T18:30:02.134Z,23.85
2023-05-22T18:32:48.303Z,23.82
2023-05-22T18:35:34.687Z,23.76
2023-05-22T18:38:22.181Z,23.69
2023-05-22T18:41:08.186Z,23.70
2023-05-22T18:43:54.158Z,23.68
2023-05-22T18:46:40.293Z,23.62
2023-05-22T18:49:26.568Z,23.56
2023-05-22T18:52:12.886Z,23.50
2023-05-22T18:54:59.158Z,23.51
2023-05-22T18:57:47.138Z,23.41
2023-05-22T19:00:33.541Z,23.42
2023-05-22T19:03:19.758Z,23.43
2023-05-22T19:06:06.036Z,23.42
2023-05-22T19:08:52.835Z,23.39
2023-05-22T19:11:39.154Z,23.36
2023-05-22T19:14:25.056Z,23.27
2023-05-22T19:17:13.140Z,23.28
2023-05-22T19:20:00.344Z,23.20
2023-05-22T19:22:48.083Z,23.18
2023-05-22T19:25:34.398Z,23.06
2023-05-22T19:28:20.159Z,23.05
2023-05-22T19:31:06.484Z,23.03
2023-05-22T19:33:52.353Z,22.90
2023-05-22T19:36:38.420Z,22.90
2023-05-22T19:39:25.188Z,22.88
2023-05-22T19:42:12.407Z,22.82
2023-05-22T19:44:59.389Z,22.80
2023-05-22T19:47:45.375Z,22.72
2023-05-22T19:50:43.854Z,22.69
2023-05-22T19:53:32.564Z,22.69
2023-05-22T19:56:18.665Z,22.64
2023-05-22T19:59:05.924Z,22.59
2023-05-22T20:01:53.929Z,22.51
2023-05-22T20:04:43.199Z,22.48
2023-05-22T20:07:29.137Z,22.37
2023-05-22T20:10:16.596Z,22.34
2023-05-22T20:13:02.594Z,22.28
2023-05-22T20:15:51.472Z,22.20
2023-05-22T20:18:38.606Z,22.14
2023-05-22T20:21:24.885Z,22.10
2023-05-22T20:24:17.614Z,22.03
2023-05-22T20:27:07.158Z,22.00
2023-05-22T20:29:53.577Z,21.94
2023-05-22T20:32:40.382Z,21.87
2023-05-22T20:35:26.650Z,21.84
2023-05-22T20:38:14.419Z,21.78
2023-05-22T20:41:02.846Z,21.79
2023-05-22T20:43:49.081Z,21.73
2023-05-22T20:46:35.534Z,21.70
2023-05-22T20:49:21.915Z,21.63
2023-05-22T20:52:10.020Z,21.59
2023-05-22T20:54:58.856Z,21.53
2023-05-22T20:57:44.876Z,21.45
2023-05-22T21:00:31.214Z,21.43
2023-05-22T21:03:17.788Z,21.40
2023-05-22T21:06:03.744Z,21.38
2023-05-22T21:08:51.437Z,21.31
2023-05-22T21:11:39.554Z,21.22
2023-05-22T21:14:25.811Z,21.17
2023-05-22T21:17:12.011Z,21.12
2023-05-22T21:19:58.183Z,21.06
2023-05-22T21:22:44.444Z,20.98
2023-05-22T21:25:30.563Z,20.94
2023-05-22T21:28:16.734Z,20.87
2023-05-22T21:31:02.685Z,20.79
2023-05-22T21:33:48.864Z,20.76
2023-05-22T21:36:34.957Z,20.63
2023-05-22T21:39:22.413Z,20.61
2023-05-22T21:42:08.970Z,20.55
2023-05-22T21:44:54.945Z,20.55
2023-05-22T21:47:41.313Z,20.47
2023-05-22T21:50:27.203Z,20.44
2023-05-22T21:53:13.124Z,20.35
2023-05-22T21:55:59.041Z,20.30
2023-05-22T21:58:45.189Z,20.23
2023-05-22T22:01:31.402Z,20.20
2023-05-22T22:04:17.412Z,20.14
2023-05-22T22:07:04.073Z,20.14
2023-05-22T22:09:50.355Z,20.11
2023-05-22T22:12:36.438Z,20.07
2023-05-22T22:15:23.015Z,20.03
2023-05-22T22:18:09.884Z,20.01
2023-05-22T22:20:56.077Z,19.96
2023-05-22T22:23:42.080Z,19.85
2023-05-22T22:26:30.732Z,19.89
2023-05-22T22:29:25.314Z,19.86
2023-05-22T22:32:12.359Z,19.84
2023-05-22T22:34:58.166Z,19.75
2023-05-22T22:37:44.281Z,19.75
2023-05-22T22:40:31.926Z,19.73
2023-05-22T22:43:18.081Z,19.71
2023-05-22T22:46:04.499Z,19.69
2023-05-22T22:48:51.213Z,19.63
2023-05-22T22:51:37.475Z,19.58
2023-05-22T22:54:24.119Z,19.53
2023-05-22T22:57:10.380Z,19.56
2023-05-22T22:59:56.665Z,19.53
2023-05-22T23:02:44.991Z,19.46
2023-05-22T23:05:31.477Z,19.53
2023-05-22T23:08:18.490Z,19.48
2023-05-22T23:11:04.922Z,19.49
2023-05-22T23:13:50.818Z,19.44
2023-05-22T23:16:38.058Z,19.47
2023-05-22T23:19:24.354Z,19.45
2023-05-22T23:22:10.592Z,19.43
2023-05-22T23:24:56.374Z,19.39
2023-05-22T23:27:42.435Z,19.35
2023-05-22T23:30:28.475Z,19.34
2023-05-22T23:33:14.370Z,19.34
2023-05-22T23:36:00.906Z,19.37
2023-05-22T23:38:47.448Z,19.33
2023-05-22T23:41:33.865Z,19.32
2023-05-22T23:44:20.939Z,19.32
2023-05-22T23:47:07.189Z,19.26
2023-05-22T23:49:55.263Z,19.29
2023-05-22T23:52:41.167Z,19.24
2023-05-22T23:55:26.930Z,19.22
2023-05-22T23:58:12.763Z,19.19
